Putnam, Oklahoma
Current Conditions -  °F | °C
As of 9:55 AM on Sunday 23 Nov 2014 (Local Time) from KCLK Reporting Station
Scattered Clouds Scattered Clouds  
Wind Chill: 11°   Ceiling: Unl
Heat Index: 11°   Visibility: 10mi
Dew Point:   Wind: 9mph
Humidity: 71%   Direction: 230°SW
Pressure: 29.41"   Gusts: NA
Location:  35.86°N, 98.97°W
Report Text: KCLK 231555Z AUTO 23008KT 10SM SCT009 11/06 A2941 RMK AO2
Loading
Personal Weather Stations






























Interactive Weather Map New forecast layout! Learn more

10-Day Weather Forecast

Advertisements
Track Severe Weather on mobile